sensor_id;sensor_type;location;lat;lon;timestamp;pressure;altitude;pressure_sealevel;temperature;humidity
57442;BME280;43284;47.042;15.498;2022-11-20T00:01:23;96707.72;;;0.70;100.00
57442;BME280;43284;47.042;15.498;2022-11-20T00:03:51;96697.53;;;0.66;100.00
57442;BME280;43284;47.042;15.498;2022-11-20T00:06:18;96698.47;;;0.60;100.00
57442;BME280;43284;47.042;15.498;2022-11-20T00:08:45;96704.50;;;0.57;99.58
57442;BME280;43284;47.042;15.498;2022-11-20T00:11:13;96703.59;;;0.61;99.37
57442;BME280;43284;47.042;15.498;2022-11-20T00:13:39;96702.78;;;0.58;99.56
57442;BME280;43284;47.042;15.498;2022-11-20T00:16:06;96704.53;;;0.56;99.46
57442;BME280;43284;47.042;15.498;2022-11-20T00:18:33;96719.09;;;0.55;99.68
57442;BME280;43284;47.042;15.498;2022-11-20T00:21:13;96720.78;;;0.56;100.00
57442;BME280;43284;47.042;15.498;2022-11-20T00:23:40;96725.00;;;0.60;100.00
57442;BME280;43284;47.042;15.498;2022-11-20T00:26:08;96725.00;;;0.60;100.00
57442;BME280;43284;47.042;15.498;2022-11-20T00:28:34;96739.53;;;0.65;100.00
57442;BME280;43284;47.042;15.498;2022-11-20T00:31:02;96743.75;;;0.69;100.00
57442;BME280;43284;47.042;15.498;2022-11-20T00:33:28;96747.97;;;0.73;100.00
57442;BME280;43284;47.042;15.498;2022-11-20T00:35:59;96744.47;;;0.77;100.00
57442;BME280;43284;47.042;15.498;2022-11-20T00:38:24;96760.75;;;0.77;100.00
57442;BME280;43284;47.042;15.498;2022-11-20T00:40:55;96755.66;;;0.74;100.00
57442;BME280;43284;47.042;15.498;2022-11-20T00:43:21;96753.91;;;0.76;100.00
57442;BME280;43284;47.042;15.498;2022-11-20T00:45:46;96752.19;;;0.77;100.00
57442;BME280;43284;47.042;15.498;2022-11-20T00:48:12;96751.28;;;0.81;100.00
57442;BME280;43284;47.042;15.498;2022-11-20T00:50:37;96745.91;;;0.93;100.00
57442;BME280;43284;47.042;15.498;2022-11-20T00:53:03;96748.47;;;0.93;100.00
57442;BME280;43284;47.042;15.498;2022-11-20T00:55:28;96755.34;;;0.94;100.00
57442;BME280;43284;47.042;15.498;2022-11-20T00:57:54;96760.50;;;0.93;100.00
57442;BME280;43284;47.042;15.498;2022-11-20T01:00:19;96767.38;;;0.92;100.00
57442;BME280;43284;47.042;15.498;2022-11-20T01:02:45;96772.44;;;0.97;100.00
57442;BME280;43284;47.042;15.498;2022-11-20T01:05:10;96768.13;;;0.99;100.00
57442;BME280;43284;47.042;15.498;2022-11-20T01:07:36;96767.13;;;1.08;100.00
57442;BME280;43284;47.042;15.498;2022-11-20T01:10:01;96755.22;;;1.00;100.00
57442;BME280;43284;47.042;15.498;2022-11-20T01:12:27;96752.69;;;0.97;100.00
57442;BME280;43284;47.042;15.498;2022-11-20T01:14:52;96754.53;;;0.91;100.00
57442;BME280;43284;47.042;15.498;2022-11-20T01:17:17;96758.84;;;0.89;100.00
57442;BME280;43284;47.042;15.498;2022-11-20T01:19:43;96764.06;;;0.84;100.00
57442;BME280;43284;47.042;15.498;2022-11-20T01:22:09;96761.59;;;0.79;100.00
57442;BME280;43284;47.042;15.498;2022-11-20T01:24:34;96762.50;;;0.77;100.00
57442;BME280;43284;47.042;15.498;2022-11-20T01:27:00;96759.00;;;0.81;100.00
57442;BME280;43284;47.042;15.498;2022-11-20T01:29:25;96752.97;;;0.82;100.00
57442;BME280;43284;47.042;15.498;2022-11-20T01:31:51;96754.63;;;0.85;100.00
57442;BME280;43284;47.042;15.498;2022-11-20T01:34:19;96757.19;;;0.86;100.00
57442;BME280;43284;47.042;15.498;2022-11-20T01:36:45;96751.13;;;0.90;100.00
57442;BME280;43284;47.042;15.498;2022-11-20T01:39:16;96748.63;;;0.86;100.00
57442;BME280;43284;47.042;15.498;2022-11-20T01:41:43;96759.00;;;0.81;100.00
57442;BME280;43284;47.042;15.498;2022-11-20T01:47:21;96765.16;;;0.71;100.00
57442;BME280;43284;47.042;15.498;2022-11-20T01:52:39;96759.13;;;0.72;100.00
57442;BME280;43284;47.042;15.498;2022-11-20T01:55:13;96758.34;;;0.67;100.00
57442;BME280;43284;47.042;15.498;2022-11-20T01:57:40;96755.81;;;0.65;100.00
57442;BME280;43284;47.042;15.498;2022-11-20T02:00:12;96749.81;;;0.65;100.00
57442;BME280;43284;47.042;15.498;2022-11-20T02:02:41;96759.25;;;0.64;100.00
57442;BME280;43284;47.042;15.498;2022-11-20T02:05:32;96743.84;;;0.61;100.00
57442;BME280;43284;47.042;15.498;2022-11-20T02:07:59;96745.59;;;0.59;100.00
57442;BME280;43284;47.042;15.498;2022-11-20T02:10:27;96738.78;;;0.56;100.00
57442;BME280;43284;47.042;15.498;2022-11-20T02:12:53;96739.69;;;0.55;100.00
57442;BME280;43284;47.042;15.498;2022-11-20T02:15:37;96745.66;;;0.56;100.00
57442;BME280;43284;47.042;15.498;2022-11-20T02:18:06;96748.25;;;0.54;100.00
57442;BME280;43284;47.042;15.498;2022-11-20T02:20:32;96749.97;;;0.55;100.00
57442;BME280;43284;47.042;15.498;2022-11-20T02:23:05;96749.13;;;0.53;100.00
57442;BME280;43284;47.042;15.498;2022-11-20T02:25:35;96738.84;;;0.55;100.00
57442;BME280;43284;47.042;15.498;2022-11-20T02:28:02;96741.44;;;0.53;100.00
57442;BME280;43284;47.042;15.498;2022-11-20T02:30:28;96737.97;;;0.54;100.00
57442;BME280;43284;47.042;15.498;2022-11-20T02:32:53;96741.41;;;0.55;100.00
57442;BME280;43284;47.042;15.498;2022-11-20T02:37:46;96743.84;;;0.61;100.00
57442;BME280;43284;47.042;15.498;2022-11-20T02:40:13;96747.25;;;0.65;100.00
57442;BME280;43284;47.042;15.498;2022-11-20T02:42:39;96749.00;;;0.63;100.00
57442;BME280;43284;47.042;15.498;2022-11-20T02:45:05;96743.84;;;0.63;100.00
57442;BME280;43284;47.042;15.498;2022-11-20T02:47:32;96736.06;;;0.67;100.00
57442;BME280;43284;47.042;15.498;2022-11-20T02:49:57;96732.63;;;0.67;100.00
57442;BME280;43284;47.042;15.498;2022-11-20T02:52:23;96730.94;;;0.66;100.00
57442;BME280;43284;47.042;15.498;2022-11-20T02:54:49;96730.09;;;0.65;100.00
57442;BME280;43284;47.042;15.498;2022-11-20T02:57:15;96714.63;;;0.67;100.00
57442;BME280;43284;47.042;15.498;2022-11-20T02:59:40;96714.63;;;0.68;100.00
57442;BME280;43284;47.042;15.498;2022-11-20T03:02:06;96709.34;;;0.74;100.00
57442;BME280;43284;47.042;15.498;2022-11-20T03:04:32;96709.25;;;0.80;100.00
57442;BME280;43284;47.042;15.498;2022-11-20T03:06:57;96701.59;;;0.77;100.00
57442;BME280;43284;47.042;15.498;2022-11-20T03:09:22;96694.78;;;0.73;100.00
57442;BME280;43284;47.042;15.498;2022-11-20T03:11:48;96705.06;;;0.75;100.00
57442;BME280;43284;47.042;15.498;2022-11-20T03:14:13;96714.50;;;0.74;100.00
57442;BME280;43284;47.042;15.498;2022-11-20T03:16:39;96720.47;;;0.76;99.98
57442;BME280;43284;47.042;15.498;2022-11-20T03:19:05;96722.25;;;0.73;99.29
57442;BME280;43284;47.042;15.498;2022-11-20T03:21:33;96724.09;;;0.65;99.58
57442;BME280;43284;47.042;15.498;2022-11-20T03:23:59;96724.09;;;0.63;100.00
57442;BME280;43284;47.042;15.498;2022-11-20T03:26:25;96720.72;;;0.61;100.00
57442;BME280;43284;47.042;15.498;2022-11-20T03:28:57;96713.81;;;0.63;100.00
57442;BME280;43284;47.042;15.498;2022-11-20T03:31:25;96724.06;;;0.66;100.00
57442;BME280;43284;47.042;15.498;2022-11-20T03:33:51;96727.56;;;0.64;100.00
57442;BME280;43284;47.042;15.498;2022-11-20T03:36:18;96717.28;;;0.64;100.00
57442;BME280;43284;47.042;15.498;2022-11-20T03:38:45;96713.81;;;0.63;100.00
57442;BME280;43284;47.042;15.498;2022-11-20T03:41:13;96711.28;;;0.61;100.00
57442;BME280;43284;47.042;15.498;2022-11-20T03:43:39;96713.88;;;0.60;100.00
57442;BME280;43284;47.042;15.498;2022-11-20T03:46:05;96709.59;;;0.60;100.00
57442;BME280;43284;47.042;15.498;2022-11-20T03:48:31;96706.09;;;0.63;100.00
57442;BME280;43284;47.042;15.498;2022-11-20T03:51:18;96708.66;;;0.66;100.00
57442;BME280;43284;47.042;15.498;2022-11-20T03:53:45;96712.03;;;0.68;100.00
57442;BME280;43284;47.042;15.498;2022-11-20T03:56:12;96705.22;;;0.66;100.00
57442;BME280;43284;47.042;15.498;2022-11-20T03:58:39;96700.09;;;0.64;100.00
57442;BME280;43284;47.042;15.498;2022-11-20T04:01:09;96703.59;;;0.61;100.00
57442;BME280;43284;47.042;15.498;2022-11-20T04:03:36;96713.00;;;0.61;100.00
57442;BME280;43284;47.042;15.498;2022-11-20T04:06:07;96700.19;;;0.58;100.00
57442;BME280;43284;47.042;15.498;2022-11-20T04:08:33;96697.56;;;0.63;100.00
57442;BME280;43284;47.042;15.498;2022-11-20T04:11:13;96697.44;;;0.70;100.00
57442;BME280;43284;47.042;15.498;2022-11-20T04:13:39;96706.84;;;0.71;100.00
57442;BME280;43284;47.042;15.498;2022-11-20T04:16:06;96697.38;;;0.73;100.00
57442;BME280;43284;47.042;15.498;2022-11-20T04:18:33;96694.81;;;0.72;100.00
57442;BME280;43284;47.042;15.498;2022-11-20T04:20:59;96679.38;;;0.73;100.00
57442;BME280;43284;47.042;15.498;2022-11-20T04:23:25;96682.78;;;0.74;100.00
57442;BME280;43284;47.042;15.498;2022-11-20T04:25:51;96680.19;;;0.75;100.00
57442;BME280;43284;47.042;15.498;2022-11-20T04:28:16;96682.66;;;0.81;100.00
57442;BME280;43284;47.042;15.498;2022-11-20T04:30:42;96684.31;;;0.84;100.00
57442;BME280;43284;47.042;15.498;2022-11-20T04:33:07;96685.22;;;0.81;100.00
57442;BME280;43284;47.042;15.498;2022-11-20T04:35:36;96680.09;;;0.81;100.00
57442;BME280;43284;47.042;15.498;2022-11-20T04:38:03;96674.03;;;0.84;100.00
57442;BME280;43284;47.042;15.498;2022-11-20T04:40:28;96672.13;;;0.94;100.00
57442;BME280;43284;47.042;15.498;2022-11-20T04:42:55;96670.53;;;0.88;100.00
57442;BME280;43284;47.042;15.498;2022-11-20T04:45:22;96669.63;;;0.91;100.00
57442;BME280;43284;47.042;15.498;2022-11-20T04:47:48;96665.41;;;0.85;100.00
57442;BME280;43284;47.042;15.498;2022-11-20T04:50:14;96656.94;;;0.81;100.00
57442;BME280;43284;47.042;15.498;2022-11-20T04:52:40;96663.81;;;0.81;100.00
57442;BME280;43284;47.042;15.498;2022-11-20T04:55:06;96662.00;;;0.85;100.00
57442;BME280;43284;47.042;15.498;2022-11-20T04:57:31;96655.94;;;0.87;100.00
57442;BME280;43284;47.042;15.498;2022-11-20T04:59:57;96664.47;;;0.91;100.00
57442;BME280;43284;47.042;15.498;2022-11-20T05:02:23;96662.81;;;0.88;100.00
57442;BME280;43284;47.042;15.498;2022-11-20T05:04:48;96662.00;;;0.85;100.00
57442;BME280;43284;47.042;15.498;2022-11-20T05:07:14;96659.44;;;0.85;100.00
57442;BME280;43284;47.042;15.498;2022-11-20T05:09:39;96661.06;;;0.89;100.00
57442;BME280;43284;47.042;15.498;2022-11-20T05:12:07;96666.22;;;0.89;100.00
57442;BME280;43284;47.042;15.498;2022-11-20T05:14:33;96656.81;;;0.88;100.00
57442;BME280;43284;47.042;15.498;2022-11-20T05:16:58;96655.13;;;0.85;100.00
57442;BME280;43284;47.042;15.498;2022-11-20T05:19:24;96656.03;;;0.82;100.00
57442;BME280;43284;47.042;15.498;2022-11-20T05:21:49;96663.03;;;0.74;100.00
57442;BME280;43284;47.042;15.498;2022-11-20T05:24:15;96663.94;;;0.73;100.00
57442;BME280;43284;47.042;15.498;2022-11-20T05:26:40;96657.97;;;0.71;100.00
57442;BME280;43284;47.042;15.498;2022-11-20T05:29:06;96663.94;;;0.72;100.00
57442;BME280;43284;47.042;15.498;2022-11-20T05:31:31;96670.75;;;0.74;100.00
57442;BME280;43284;47.042;15.498;2022-11-20T05:33:57;96673.28;;;0.77;100.00
57442;BME280;43284;47.042;15.498;2022-11-20T05:36:23;96670.66;;;0.80;100.00
57442;BME280;43284;47.042;15.498;2022-11-20T05:38:49;96667.97;;;0.88;100.00
57442;BME280;43284;47.042;15.498;2022-11-20T05:41:17;96670.47;;;0.91;100.00
57442;BME280;43284;47.042;15.498;2022-11-20T05:43:44;96666.22;;;0.89;100.00
57442;BME280;43284;47.042;15.498;2022-11-20T05:46:13;96678.22;;;0.90;100.00
57442;BME280;43284;47.042;15.498;2022-11-20T05:48:40;96678.16;;;0.93;100.00
57442;BME280;43284;47.042;15.498;2022-11-20T05:51:09;96674.69;;;0.94;100.00
57442;BME280;43284;47.042;15.498;2022-11-20T05:53:35;96680.72;;;0.94;100.00
57442;BME280;43284;47.042;15.498;2022-11-20T05:56:10;96674.75;;;0.91;100.00
57442;BME280;43284;47.042;15.498;2022-11-20T05:58:37;96695.34;;;0.92;100.00
57442;BME280;43284;47.042;15.498;2022-11-20T06:01:13;96685.00;;;0.94;100.00
57442;BME280;43284;47.042;15.498;2022-11-20T06:03:40;96690.28;;;0.88;100.00
57442;BME280;43284;47.042;15.498;2022-11-20T06:06:08;96683.41;;;0.87;100.00
57442;BME280;43284;47.042;15.498;2022-11-20T06:08:33;96685.94;;;0.90;100.00
57442;BME280;43284;47.042;15.498;2022-11-20T06:11:03;96695.41;;;0.88;100.00
57442;BME280;43284;47.042;15.498;2022-11-20T06:13:29;96691.13;;;0.88;100.00
57442;BME280;43284;47.042;15.498;2022-11-20T06:15:55;96693.66;;;0.90;100.00
57442;BME280;43284;47.042;15.498;2022-11-20T06:18:20;96698.84;;;0.87;100.00
57442;BME280;43284;47.042;15.498;2022-11-20T06:20:46;96701.38;;;0.90;100.00
57442;BME280;43284;47.042;15.498;2022-11-20T06:23:12;96703.09;;;0.89;100.00
57442;BME280;43284;47.042;15.498;2022-11-20T06:25:42;96704.81;;;0.90;100.00
57442;BME280;43284;47.042;15.498;2022-11-20T06:28:07;96702.25;;;0.89;100.00
57442;BME280;43284;47.042;15.498;2022-11-20T06:30:34;96706.56;;;0.88;100.00
57442;BME280;43284;47.042;15.498;2022-11-20T06:32:59;96706.47;;;0.91;100.00
57442;BME280;43284;47.042;15.498;2022-11-20T06:35:25;96705.63;;;0.91;100.00
57442;BME280;43284;47.042;15.498;2022-11-20T06:37:50;96715.03;;;0.93;100.00
57442;BME280;43284;47.042;15.498;2022-11-20T06:40:16;96721.84;;;0.96;100.00
57442;BME280;43284;47.042;15.498;2022-11-20T06:42:41;96725.31;;;0.95;100.00
57442;BME280;43284;47.042;15.498;2022-11-20T06:45:07;96721.84;;;0.96;100.00
57442;BME280;43284;47.042;15.498;2022-11-20T06:47:33;96719.19;;;1.00;100.00
57442;BME280;43284;47.042;15.498;2022-11-20T06:49:59;96728.53;;;1.06;100.00
57442;BME280;43284;47.042;15.498;2022-11-20T06:52:24;96726.66;;;1.14;100.00
57442;BME280;43284;47.042;15.498;2022-11-20T06:54:50;96727.38;;;1.22;100.00
57442;BME280;43284;47.042;15.498;2022-11-20T06:57:15;96728.19;;;1.24;100.00
57442;BME280;43284;47.042;15.498;2022-11-20T06:59:41;96723.09;;;1.21;100.00
57442;BME280;43284;47.042;15.498;2022-11-20T07:02:12;96727.41;;;1.21;100.00
57442;BME280;43284;47.042;15.498;2022-11-20T07:04:38;96723.09;;;1.21;100.00
57442;BME280;43284;47.042;15.498;2022-11-20T07:07:04;96729.81;;;1.30;100.00
57442;BME280;43284;47.042;15.498;2022-11-20T07:09:31;96726.38;;;1.31;100.00
57442;BME280;43284;47.042;15.498;2022-11-20T07:11:56;96722.81;;;1.35;100.00
57442;BME280;43284;47.042;15.498;2022-11-20T07:14:22;96730.56;;;1.35;100.00
57442;BME280;43284;47.042;15.498;2022-11-20T07:16:47;96741.81;;;1.31;100.00
57442;BME280;43284;47.042;15.498;2022-11-20T07:19:13;96741.84;;;1.28;100.00
57442;BME280;43284;47.042;15.498;2022-11-20T07:21:38;96741.13;;;1.21;100.00
57442;BME280;43284;47.042;15.498;2022-11-20T07:24:04;96745.44;;;1.19;100.00
57442;BME280;43284;47.042;15.498;2022-11-20T07:26:29;96741.19;;;1.18;100.00
57442;BME280;43284;47.042;15.498;2022-11-20T07:28:55;96747.28;;;1.13;100.00
57442;BME280;43284;47.042;15.498;2022-11-20T07:31:20;96742.84;;;1.22;100.00
57442;BME280;43284;47.042;15.498;2022-11-20T07:33:46;96756.59;;;1.20;100.00
57442;BME280;43284;47.042;15.498;2022-11-20T07:36:11;96755.69;;;1.22;100.00
57442;BME280;43284;47.042;15.498;2022-11-20T07:38:37;96757.50;;;1.16;100.00
57442;BME280;43284;47.042;15.498;2022-11-20T07:41:03;96751.44;;;1.20;100.00
57442;BME280;43284;47.042;15.498;2022-11-20T07:43:29;96751.44;;;1.20;100.00
57442;BME280;43284;47.042;15.498;2022-11-20T07:45:55;96747.19;;;1.19;100.00
57442;BME280;43284;47.042;15.498;2022-11-20T07:48:21;96749.66;;;1.25;100.00
57442;BME280;43284;47.042;15.498;2022-11-20T07:50:47;96754.75;;;1.27;100.00
57442;BME280;43284;47.042;15.498;2022-11-20T07:53:12;96761.53;;;1.31;100.00
57442;BME280;43284;47.042;15.498;2022-11-20T07:55:39;96759.78;;;1.33;100.00
57442;BME280;43284;47.042;15.498;2022-11-20T07:58:05;96763.94;;;1.40;100.00
57442;BME280;43284;47.042;15.498;2022-11-20T08:00:30;96759.06;;;1.26;100.00
57442;BME280;43284;47.042;15.498;2022-11-20T08:02:56;96770.03;;;1.36;100.00
57442;BME280;43284;47.042;15.498;2022-11-20T08:05:21;96770.81;;;1.41;100.00
57442;BME280;43284;47.042;15.498;2022-11-20T08:07:47;96777.59;;;1.45;100.00
57442;BME280;43284;47.042;15.498;2022-11-20T08:10:14;96769.75;;;1.51;100.00
57442;BME280;43284;47.042;15.498;2022-11-20T08:12:52;96776.50;;;1.57;100.00
57442;BME280;43284;47.042;15.498;2022-11-20T08:15:37;96780.63;;;1.65;100.00
57442;BME280;43284;47.042;15.498;2022-11-20T08:18:10;96772.91;;;1.65;100.00
57442;BME280;43284;47.042;15.498;2022-11-20T08:20:37;96778.00;;;1.69;100.00
57442;BME280;43284;47.042;15.498;2022-11-20T08:23:04;96779.69;;;1.70;100.00
57442;BME280;43284;47.042;15.498;2022-11-20T08:25:31;96780.50;;;1.73;100.00
57442;BME280;43284;47.042;15.498;2022-11-20T08:27:58;96774.44;;;1.74;100.00
57442;BME280;43284;47.042;15.498;2022-11-20T08:30:24;96773.50;;;1.78;100.00
57442;BME280;43284;47.042;15.498;2022-11-20T08:32:50;96774.34;;;1.79;100.00
57442;BME280;43284;47.042;15.498;2022-11-20T08:36:07;96779.38;;;1.85;100.00
57442;BME280;43284;47.042;15.498;2022-11-20T08:38:33;96784.50;;;1.88;100.00
57442;BME280;43284;47.042;15.498;2022-11-20T08:41:01;96797.28;;;1.93;100.00
57442;BME280;43284;47.042;15.498;2022-11-20T08:43:45;96801.63;;;1.91;100.00
57442;BME280;43284;47.042;15.498;2022-11-20T08:46:11;96810.19;;;1.91;100.00
57442;BME280;43284;47.042;15.498;2022-11-20T08:48:38;96801.53;;;1.94;100.00
57442;BME280;43284;47.042;15.498;2022-11-20T08:51:04;96799.78;;;1.97;100.00
57442;BME280;43284;47.042;15.498;2022-11-20T08:53:29;96798.00;;;1.99;100.00
57442;BME280;43284;47.042;15.498;2022-11-20T08:55:56;96798.88;;;1.98;100.00
57442;BME280;43284;47.042;15.498;2022-11-20T08:58:23;96808.25;;;2.02;100.00
57442;BME280;43284;47.042;15.498;2022-11-20T09:00:49;96798.00;;;1.99;100.00
57442;BME280;43284;47.042;15.498;2022-11-20T09:03:14;96795.28;;;2.05;100.00
57442;BME280;43284;47.042;15.498;2022-11-20T09:05:40;96791.72;;;2.13;100.00
57442;BME280;43284;47.042;15.498;2022-11-20T09:08:06;96804.50;;;2.17;100.00
57442;BME280;43284;47.042;15.498;2022-11-20T09:10:31;96803.50;;;2.23;100.00
57442;BME280;43284;47.042;15.498;2022-11-20T09:12:57;96801.94;;;2.16;100.00
57442;BME280;43284;47.042;15.498;2022-11-20T09:15:24;96806.25;;;2.17;100.00
57442;BME280;43284;47.042;15.498;2022-11-20T09:17:58;96798.41;;;2.21;100.00
57442;BME280;43284;47.042;15.498;2022-11-20T09:20:25;96802.56;;;2.27;100.00
57442;BME280;43284;47.042;15.498;2022-11-20T09:22:51;96792.13;;;2.33;100.00
57442;BME280;43284;47.042;15.498;2022-11-20T09:25:17;96792.84;;;2.38;100.00
57442;BME280;43284;47.042;15.498;2022-11-20T09:27:43;96793.53;;;2.46;100.00
57442;BME280;43284;47.042;15.498;2022-11-20T09:30:15;96795.19;;;2.51;100.00
57442;BME280;43284;47.042;15.498;2022-11-20T09:32:41;96796.69;;;2.59;100.00
57442;BME280;43284;47.042;15.498;2022-11-20T09:35:08;96796.53;;;2.67;100.00
57442;BME280;43284;47.042;15.498;2022-11-20T09:37:34;96788.69;;;2.72;100.00
57442;BME280;43284;47.042;15.498;2022-11-20T09:40:00;96780.75;;;2.79;100.00
57442;BME280;43284;47.042;15.498;2022-11-20T09:42:27;96785.84;;;2.82;100.00
57442;BME280;43284;47.042;15.498;2022-11-20T09:45:30;96786.66;;;2.84;100.00
57442;BME280;43284;47.042;15.498;2022-11-20T09:56:08;96770.69;;;3.04;100.00
57442;BME280;43284;47.042;15.498;2022-11-20T09:58:40;96774.91;;;3.07;100.00
57442;BME280;43284;47.042;15.498;2022-11-20T10:01:15;96779.06;;;3.13;100.00
57442;BME280;43284;47.042;15.498;2022-11-20T10:04:06;96779.81;;;3.18;100.00
57442;BME280;43284;47.042;15.498;2022-11-20T10:09:35;96766.69;;;3.25;100.00
57442;BME280;43284;47.042;15.498;2022-11-20T10:12:12;96770.94;;;3.28;100.00
57442;BME280;43284;47.042;15.498;2022-11-20T10:14:56;96759.59;;;3.34;100.00
57442;BME280;43284;47.042;15.498;2022-11-20T10:26:01;96762.31;;;3.60;100.00
57442;BME280;43284;47.042;15.498;2022-11-20T10:31:25;96750.53;;;3.81;100.00
57442;BME280;43284;47.042;15.498;2022-11-20T10:33:53;96747.13;;;3.81;100.00
57442;BME280;43284;47.042;15.498;2022-11-20T10:36:28;96749.56;;;3.85;100.00
57442;BME280;43284;47.042;15.498;2022-11-20T10:39:18;96742.47;;;3.92;100.00
57442;BME280;43284;47.042;15.498;2022-11-20T10:41:50;96747.47;;;3.98;100.00
57442;BME280;43284;47.042;15.498;2022-11-20T10:44:24;96747.28;;;4.04;100.00
57442;BME280;43284;47.042;15.498;2022-11-20T10:47:15;96750.53;;;4.11;100.00
57442;BME280;43284;47.042;15.498;2022-11-20T10:49:42;96751.22;;;4.18;100.00
57442;BME280;43284;47.042;15.498;2022-11-20T10:58:17;96746.09;;;4.44;100.00
57442;BME280;43284;47.042;15.498;2022-11-20T11:00:45;96739.78;;;4.53;100.00
57442;BME280;43284;47.042;15.498;2022-11-20T11:03:27;96742.97;;;4.61;100.00
57442;BME280;43284;47.042;15.498;2022-11-20T11:08:32;96739.44;;;4.64;99.65
57442;BME280;43284;47.042;15.498;2022-11-20T11:11:07;96732.38;;;4.69;100.00
57442;BME280;43284;47.042;15.498;2022-11-20T11:13:35;96730.47;;;4.74;99.38
57442;BME280;43284;47.042;15.498;2022-11-20T11:16:02;96734.59;;;4.81;99.39
57442;BME280;43284;47.042;15.498;2022-11-20T11:18:33;96738.84;;;4.82;98.24
57442;BME280;43284;47.042;15.498;2022-11-20T11:21:01;96736.06;;;4.88;98.49
57442;BME280;43284;47.042;15.498;2022-11-20T11:23:34;96739.53;;;4.87;97.47
57442;BME280;43284;47.042;15.498;2022-11-20T11:26:02;96739.41;;;4.92;97.79
57442;BME280;43284;47.042;15.498;2022-11-20T11:28:28;96730.63;;;4.96;97.34
57442;BME280;43284;47.042;15.498;2022-11-20T11:30:55;96738.19;;;5.02;97.15
57442;BME280;43284;47.042;15.498;2022-11-20T11:33:28;96733.03;;;5.01;94.37
57442;BME280;43284;47.042;15.498;2022-11-20T11:35:55;96735.56;;;5.04;94.50
57442;BME280;43284;47.042;15.498;2022-11-20T11:38:40;96725.03;;;5.08;94.64
57442;BME280;43284;47.042;15.498;2022-11-20T11:41:14;96729.19;;;5.14;94.85
57442;BME280;43284;47.042;15.498;2022-11-20T11:43:51;96724.56;;;5.22;95.28
57442;BME280;43284;47.042;15.498;2022-11-20T11:46:36;96720.88;;;5.29;94.67
57442;BME280;43284;47.042;15.498;2022-11-20T11:52:17;96719.78;;;5.35;93.53
57442;BME280;43284;47.042;15.498;2022-11-20T11:54:57;96715.88;;;5.48;94.43
57442;BME280;43284;47.042;15.498;2022-11-20T12:00:21;96711.53;;;5.72;92.09
57442;BME280;43284;47.042;15.498;2022-11-20T12:02:57;96707.31;;;5.70;90.91
57442;BME280;43284;47.042;15.498;2022-11-20T12:05:37;96705.34;;;5.76;90.79
57442;BME280;43284;47.042;15.498;2022-11-20T12:11:17;96705.97;;;5.83;89.22
57442;BME280;43284;47.042;15.498;2022-11-20T12:16:37;96701.25;;;5.94;84.70
57442;BME280;43284;47.042;15.498;2022-11-20T12:19:10;96703.03;;;5.92;84.82
57442;BME280;43284;47.042;15.498;2022-11-20T12:24:30;96703.25;;;6.10;84.93
57442;BME280;43284;47.042;15.498;2022-11-20T12:30:02;96699.00;;;6.31;83.61
57442;BME280;43284;47.042;15.498;2022-11-20T12:32:41;96693.06;;;6.49;83.42
57442;BME280;43284;47.042;15.498;2022-11-20T12:43:46;96695.34;;;7.40;75.70
57442;BME280;43284;47.042;15.498;2022-11-20T12:46:38;96692.25;;;7.32;77.09
57442;BME280;43284;47.042;15.498;2022-11-20T13:00:10;96665.41;;;7.90;76.09
57442;BME280;43284;47.042;15.498;2022-11-20T13:05:35;96671.84;;;8.38;74.14
57442;BME280;43284;47.042;15.498;2022-11-20T13:08:03;96665.84;;;8.55;74.09
57442;BME280;43284;47.042;15.498;2022-11-20T13:16:37;96671.47;;;8.82;73.31
57442;BME280;43284;47.042;15.498;2022-11-20T13:19:10;96665.56;;;8.96;72.42
57442;BME280;43284;47.042;15.498;2022-11-20T13:21:48;96665.00;;;9.24;73.13
57442;BME280;43284;47.042;15.498;2022-11-20T13:27:16;96653.78;;;9.73;69.08
57442;BME280;43284;47.042;15.498;2022-11-20T13:29:45;96659.84;;;9.74;68.59
57442;BME280;43284;47.042;15.498;2022-11-20T13:32:20;96653.88;;;9.87;70.22
57442;BME280;43284;47.042;15.498;2022-11-20T13:35:01;96658.06;;;9.58;68.37
57442;BME280;43284;47.042;15.498;2022-11-20T13:37:31;96657.22;;;9.58;68.61
57442;BME280;43284;47.042;15.498;2022-11-20T13:45:38;96652.16;;;9.04;72.84
57442;BME280;43284;47.042;15.498;2022-11-20T13:48:19;96648.78;;;9.02;73.06
57442;BME280;43284;47.042;15.498;2022-11-20T13:51:07;96650.44;;;9.03;70.80
57442;BME280;43284;47.042;15.498;2022-11-20T13:56:40;96655.59;;;8.70;71.64
57442;BME280;43284;47.042;15.498;2022-11-20T14:01:57;96661.28;;;8.41;73.75
57442;BME280;43284;47.042;15.498;2022-11-20T14:04:31;96655.72;;;8.30;74.38
57442;BME280;43284;47.042;15.498;2022-11-20T14:06:58;96655.25;;;8.22;73.12
57442;BME280;43284;47.042;15.498;2022-11-20T14:09:33;96652.19;;;8.14;74.36
57442;BME280;43284;47.042;15.498;2022-11-20T14:12:01;96647.25;;;8.08;74.34
57442;BME280;43284;47.042;15.498;2022-11-20T14:14:33;96656.34;;;7.99;76.03
57442;BME280;43284;47.042;15.498;2022-11-20T14:17:15;96646.53;;;8.04;75.02
57442;BME280;43284;47.042;15.498;2022-11-20T14:19:44;96636.63;;;8.12;74.95
57442;BME280;43284;47.042;15.498;2022-11-20T14:22:21;96635.78;;;7.93;74.60
57442;BME280;43284;47.042;15.498;2022-11-20T14:27:34;96626.16;;;7.95;75.06
57442;BME280;43284;47.042;15.498;2022-11-20T14:30:03;96633.84;;;7.79;75.41
57442;BME280;43284;47.042;15.498;2022-11-20T14:32:30;96636.38;;;7.61;76.61
57442;BME280;43284;47.042;15.498;2022-11-20T14:35:00;96640.75;;;7.40;76.94
57442;BME280;43284;47.042;15.498;2022-11-20T14:37:30;96639.59;;;7.27;79.20
57442;BME280;43284;47.042;15.498;2022-11-20T14:39:59;96643.41;;;7.20;79.97
57442;BME280;43284;47.042;15.498;2022-11-20T14:42:28;96645.16;;;6.99;79.16
57442;BME280;43284;47.042;15.498;2022-11-20T14:44:58;96648.97;;;6.90;81.50